Airfield :
LOGIN :

Register | Disclaimer

   EN    FR    IT 

 










Legend :    VFR   Marginal VFR   IFR   Intensive IFR   Very Intensive IFR
Visi :
Ceiling :
>= 8 km
>= 3000ft
5 to 8 km
1000 to 3000 ft
1500m to 5 km
500 to 1000 ft
800 to 1500m
200 to 500 ft
< 800m
< 200 ft
Symbols :   Thunderstorms  Fog  Heavy snow  Heavy precipitations  Wind > 20 kt
SIGMETs :     Misc.  Thunderstorms  Icing  Turbulence  Mountain Waves  Volcanic Ashes






- Airport Elevation : 412 ft
- IATA code : ORE


LFOJ - Orleans

CURRENT METAR :
  • 130930Z AUTO 27022KT 9999 FEW012 BKN030 BKN074 06/03 Q0988 TEMPO 27027G45KT 4000 SHRA SCT018CB

EXPIRED METARs :
  • 130900Z AUTO 26019KT 9999 SCT027 BKN034 BKN046 06/03 Q0987 TEMPO 27027G45KT 4000 SHRA SCT018CB
  • 130830Z AUTO 26018KT 9999 -RA BKN033 BKN039 BKN070 06/04 Q0986 TEMPO 27027G45KT 4000 SHRA SCT018CB
  • 130800Z AUTO 26023KT 9999 FEW048 06/03 Q0985 TEMPO 27027G45KT 4000 SHRA SCT018CB
  • 130730Z AUTO 26023KT 9999 FEW037 SCT052 06/03 Q0985 TEMPO 27027G45KT 4000 SHRA SCT018CB
  • 130700Z AUTO 26020KT 9999 BKN043 BKN052 06/03 Q0984 TEMPO 27027G45KT 4000 SHRA SCT018CB

TAF TAF LFOJ
Valid from the 13 at 09:00 until the 14 at 09:00 UTC


130800Z 1309/1409 27023KT 9999 SCT035
TEMPO 1309/1317 27025G35KT 4000 SHRA SCT020TCU
PROB30
TEMPO 1309/1317 27027G45KT SCT018CB
BECMG 1318/1319 22016KT BKN014
TEMPO 1319/1322 3000 RA BKN008
BECMG 1321/1322 25025G35KT BKN025
TEMPO 1322/1405 25027G45KT 4000 SHRA SCT010 BKN020TCU
PROB40
TEMPO 1401/1404 27035G55KT



MET'MAP, your aeronautical weather chart ! - Copyright ORBIFLY December 2007 - Disclaimer

ORBIFLY MET'MAP TEAM :

Programming & Development : Alexandra Zaïnal
Concept & original design : Baudouin d'Aumeries
Assistance for programming : Marc-Olivier Méhu
Technical & hardware support : Manuel Goepfert

Contact : metmap@orbifly.com




SOURCES & CREDITS :

   NOAA